Time;durP1;ratioP1;P1;durP2;ratioP2;P2;SDS_P1;SDS_P2;PMS_P1;PMS_P2;Temp;Humidity;BMP_temperature;BMP_pressure;BME280_temperature;BME280_humidity;BME280_pressure;Samples;Min_cycle;Max_cycle;Signal;HPM_P1;HPM_P2
2023/05/30 00:00:27;;;;;;;4.88;2.95;;;;;;;20.80;57.75;98523.44;5055134;28;20037;-73
2023/05/30 00:02:52;;;;;;;5.57;3.40;;;;;;;20.77;57.58;98514.81;5037391;28;20098;-73
2023/05/30 00:05:18;;;;;;;7.43;3.05;;;;;;;20.73;57.75;98513.56;5053900;28;20472;-73
2023/05/30 00:07:43;;;;;;;3.42;2.92;;;;;;;20.75;57.77;98514.19;5020933;28;20068;-73
2023/05/30 00:10:09;;;;;;;6.47;3.10;;;;;;;20.73;57.63;98508.25;5055105;28;20021;-74
2023/05/30 00:12:40;;;;;;;8.35;3.22;;;;;;;20.73;57.53;98508.25;5036955;28;20404;-73
2023/05/30 00:15:06;;;;;;;7.75;3.67;;;;;;;20.72;57.65;98503.94;5053899;28;20078;-73
2023/05/30 00:17:32;;;;;;;5.30;3.63;;;;;;;20.75;57.52;98513.38;5053679;28;20025;-73
2023/05/30 00:19:59;;;;;;;6.15;3.80;;;;;;;20.71;57.54;98507.59;5053485;28;20522;-73
2023/05/30 00:22:25;;;;;;;5.45;3.60;;;;;;;20.74;57.72;98519.69;5037143;28;20079;-74
2023/05/30 00:24:51;;;;;;;7.30;3.40;;;;;;;20.73;57.77;98510.91;5054732;28;20025;-74
2023/05/30 00:27:17;;;;;;;7.22;3.53;;;;;;;20.72;57.74;98511.91;5053423;28;20049;-74
2023/05/30 00:29:43;;;;;;;7.28;3.40;;;;;;;20.68;57.84;98497.38;5053449;28;20433;-74
2023/05/30 00:32:09;;;;;;;4.30;3.17;;;;;;;20.72;57.66;98508.44;5036837;28;20098;-74
2023/05/30 00:34:34;;;;;;;4.32;3.15;;;;;;;20.72;57.50;98513.75;5052672;28;20041;-74
2023/05/30 00:37:00;;;;;;;4.55;3.38;;;;;;;20.72;57.67;98513.75;5020921;28;20133;-74
2023/05/30 00:39:25;;;;;;;6.22;3.60;;;;;;;20.69;57.60;98514.13;5054458;28;20074;-74
2023/05/30 00:41:51;;;;;;;6.05;3.40;;;;;;;20.66;57.57;98515.31;5054347;28;20037;-74
2023/05/30 00:44:17;;;;;;;5.28;3.13;;;;;;;20.69;57.47;98511.47;5036570;28;20044;-74
2023/05/30 00:46:42;;;;;;;5.82;3.30;;;;;;;20.68;57.75;98521.25;5054128;28;20037;-74
2023/05/30 00:49:08;;;;;;;7.80;3.10;;;;;;;20.67;57.58;98516.13;5020021;28;20037;-74
2023/05/30 00:51:33;;;;;;;5.03;3.20;;;;;;;20.66;57.60;98519.81;5036230;28;20056;-74
2023/05/30 00:53:59;;;;;;;9.98;3.20;;;;;;;20.64;57.64;98521.78;5054056;28;20029;-73
2023/05/30 00:56:26;;;;;;;8.20;3.33;;;;;;;20.58;57.85;98510.91;5036579;28;20065;-73
2023/05/30 00:58:52;;;;;;;4.93;3.00;;;;;;;20.64;57.64;98514.69;5052747;28;20482;-73
2023/05/30 01:01:19;;;;;;;6.53;3.20;;;;;;;20.64;57.83;98522.63;5052894;28;20096;-73
2023/05/30 01:03:48;;;;;;;6.20;3.40;;;;;;;20.55;57.64;98502.50;5036357;28;20112;-73
2023/05/30 01:06:13;;;;;;;5.68;3.10;;;;;;;20.55;57.81;98499.88;5052798;28;20037;-72
2023/05/30 01:08:39;;;;;;;4.53;3.08;;;;;;;20.61;57.67;98505.22;5053760;28;20029;-73
2023/05/30 01:11:33;;;;;;;6.97;3.17;;;;;;;20.62;57.77;98514.03;5053759;28;20025;-73
2023/05/30 01:14:29;;;;;;;3.28;2.88;;;;;;;20.59;57.71;98507.25;5052870;28;20028;-72
2023/05/30 01:16:58;;;;;;;4.53;3.10;;;;;;;20.60;57.67;98508.06;4995418;28;20160;-72
2023/05/30 01:19:30;;;;;;;6.38;3.10;;;;;;;20.58;57.86;98502.94;4979738;28;20140;-72
2023/05/30 01:22:05;;;;;;;4.50;3.10;;;;;;;20.56;57.96;98504.97;4979551;28;20417;-72
2023/05/30 01:24:35;;;;;;;8.90;3.22;;;;;;;20.58;57.99;98502.13;5011863;28;20117;-73
2023/05/30 01:27:11;;;;;;;4.15;2.90;;;;;;;20.57;57.85;98508.44;4978907;28;20144;-72
2023/05/30 01:29:37;;;;;;;4.93;3.20;;;;;;;20.56;57.64;98502.31;4996011;28;20485;-72
2023/05/30 01:32:02;;;;;;;4.78;3.17;;;;;;;20.55;57.75;98503.31;4978780;28;20052;-72
2023/05/30 01:34:28;;;;;;;6.15;3.17;;;;;;;20.54;57.71;98500.84;4978971;28;20100;-72
2023/05/30 01:36:53;;;;;;;5.65;3.33;;;;;;;20.55;57.65;98503.31;4995154;28;20042;-72
2023/05/30 01:39:19;;;;;;;5.03;3.05;;;;;;;20.54;57.74;98506.16;5011510;28;20156;-73
2023/05/30 01:42:04;;;;;;;5.57;3.15;;;;;;;20.56;57.67;98509.47;4995079;28;20042;-72
2023/05/30 01:44:55;;;;;;;4.43;3.10;;;;;;;20.54;57.66;98511.47;4978702;28;20537;-72
2023/05/30 01:47:38;;;;;;;8.77;3.30;;;;;;;20.52;57.86;98508.19;4979346;28;20065;-72
2023/05/30 01:50:23;;;;;;;8.90;3.20;;;;;;;20.49;57.93;98501.41;4978902;28;20042;-73
2023/05/30 01:52:59;;;;;;;3.55;2.92;;;;;;;20.53;57.59;98523.09;4999362;28;20072;-72
2023/05/30 01:55:25;;;;;;;4.25;3.08;;;;;;;20.50;57.85;98516.31;5035361;28;20060;-72
2023/05/30 01:57:51;;;;;;;4.63;3.05;;;;;;;20.52;57.90;98524.91;5034957;28;20194;-72
2023/05/30 02:00:16;;;;;;;4.85;2.95;;;;;;;20.49;57.79;98513.88;5035196;28;20033;-72
2023/05/30 02:02:45;;;;;;;6.40;3.20;;;;;;;20.53;57.92;98528.41;5035655;28;20121;-72
2023/05/30 02:05:11;;;;;;;5.05;3.00;;;;;;;20.50;57.77;98523.47;5035164;28;20032;-72
2023/05/30 02:07:36;;;;;;;4.68;3.17;;;;;;;20.49;57.70;98519.97;5052724;28;20029;-70
2023/05/30 02:10:02;;;;;;;4.97;2.90;;;;;;;20.49;57.84;98521.81;5052921;28;20090;-73
2023/05/30 02:12:27;;;;;;;4.75;3.03;;;;;;;20.53;57.97;98520.44;5034909;28;20481;-74
2023/05/30 02:14:54;;;;;;;6.43;2.88;;;;;;;20.50;57.96;98516.31;5052676;28;20029;-74
2023/05/30 02:17:20;;;;;;;5.95;3.15;;;;;;;20.52;57.78;98521.44;5051684;28;20427;-74
2023/05/30 02:19:47;;;;;;;4.97;2.88;;;;;;;20.49;57.88;98524.47;5052553;28;20021;-74
2023/05/30 02:22:12;;;;;;;5.07;3.20;;;;;;;20.51;57.85;98525.09;5034739;28;20029;-74
2023/05/30 02:24:38;;;;;;;3.47;2.80;;;;;;;20.50;57.69;98526.13;5052418;28;20033;-74
2023/05/30 02:27:03;;;;;;;3.75;2.75;;;;;;;20.50;57.82;98523.47;5034264;28;20538;-74
2023/05/30 02:29:29;;;;;;;3.97;2.70;;;;;;;20.48;57.71;98523.66;5052308;28;20037;-73
2023/05/30 02:31:54;;;;;;;3.70;3.00;;;;;;;20.44;57.89;98517.06;5052339;28;20021;-74
2023/05/30 02:34:20;;;;;;;5.32;3.20;;;;;;;20.47;57.70;98514.03;5051324;28;20064;-74
2023/05/30 02:36:45;;;;;;;4.15;3.00;;;;;;;20.43;58.00;98513.59;5052575;28;20112;-74
2023/05/30 02:39:11;;;;;;;6.80;2.85;;;;;;;20.45;57.83;98513.41;5050840;28;20404;-74
2023/05/30 02:41:37;;;;;;;4.95;2.95;;;;;;;20.43;57.66;98512.78;5052197;28;20396;-74
2023/05/30 02:44:04;;;;;;;4.18;2.97;;;;;;;20.41;57.68;98512.97;5049866;28;20029;-74
2023/05/30 02:46:29;;;;;;;5.07;2.97;;;;;;;20.42;57.69;98522.56;5050598;28;20496;-74
2023/05/30 02:48:55;;;;;;;4.00;2.75;;;;;;;20.46;57.68;98528.31;5050906;28;20060;-74
2023/05/30 02:51:20;;;;;;;7.55;3.40;;;;;;;20.46;57.79;98532.78;5050526;28;20389;-74
2023/05/30 02:53:46;;;;;;;3.90;2.80;;;;;;;20.47;57.66;98529.16;5051954;28;20028;-74
2023/05/30 02:56:11;;;;;;;7.53;3.10;;;;;;;20.47;57.59;98531.78;5052313;28;20491;-74
2023/05/30 02:58:37;;;;;;;3.47;2.78;;;;;;;20.46;57.64;98536.25;5050559;28;20025;-74
2023/05/30 03:01:02;;;;;;;3.85;2.83;;;;;;;20.48;57.75;98538.72;5052151;28;20040;-74
2023/05/30 03:03:29;;;;;;;4.03;2.60;;;;;;;20.45;57.50;98529.31;5050944;28;20506;-74
2023/05/30 03:05:57;;;;;;;3.53;2.80;;;;;;;20.50;57.50;98534.06;5050661;28;20094;-74
2023/05/30 03:08:23;;;;;;;4.00;2.67;;;;;;;20.50;57.56;98528.78;5018434;28;20029;-74
2023/05/30 03:10:48;;;;;;;3.13;2.50;;;;;;;20.48;57.48;98526.31;5051749;28;20119;-75
2023/05/30 03:13:14;;;;;;;4.95;2.83;;;;;;;20.50;57.56;98534.88;5051856;28;20175;-74
2023/05/30 03:15:40;;;;;;;4.20;2.65;;;;;;;20.52;57.25;98538.16;5051891;28;20483;-74
2023/05/30 03:18:05;;;;;;;3.58;2.53;;;;;;;20.53;57.13;98541.66;5051820;28;20484;-74
2023/05/30 03:20:31;;;;;;;3.95;2.60;;;;;;;20.52;57.38;98545.31;5050639;28;20061;-74
2023/05/30 03:22:57;;;;;;;4.30;2.63;;;;;;;20.51;57.13;98551.59;5051875;28;20037;-74
2023/05/30 03:25:22;;;;;;;4.13;2.70;;;;;;;20.51;57.11;98551.59;5050097;28;20045;-74
2023/05/30 03:27:50;;;;;;;3.45;2.50;;;;;;;20.54;57.16;98557.38;5049974;28;20052;-74
2023/05/30 03:30:17;;;;;;;5.05;2.80;;;;;;;20.53;57.04;98569.00;5050813;28;20256;-74
2023/05/30 03:32:42;;;;;;;2.80;2.40;;;;;;;20.56;56.92;98563.31;5050384;28;20090;-74
2023/05/30 03:35:08;;;;;;;3.65;2.60;;;;;;;20.53;57.02;98558.38;5050130;28;20041;-74
2023/05/30 03:37:34;;;;;;;3.67;2.70;;;;;;;20.55;56.91;98569.63;5050386;28;20124;-74
2023/05/30 03:39:59;;;;;;;3.25;2.17;;;;;;;20.53;57.07;98565.53;5050078;28;20068;-74
2023/05/30 03:42:25;;;;;;;3.15;2.35;;;;;;;20.54;57.04;98569.78;5051787;28;20037;-75
2023/05/30 03:44:51;;;;;;;3.35;2.60;;;;;;;20.53;57.11;98573.47;5051689;28;20392;-74
2023/05/30 03:47:16;;;;;;;3.35;2.33;;;;;;;20.52;57.15;98574.47;5049253;28;20029;-75
2023/05/30 03:49:42;;;;;;;3.50;2.10;;;;;;;20.52;57.37;98569.97;5049444;28;20033;-74
2023/05/30 03:52:07;;;;;;;4.20;2.70;;;;;;;20.55;57.45;98584.72;5032520;28;20075;-73
2023/05/30 03:54:33;;;;;;;4.68;2.80;;;;;;;20.55;57.45;98582.06;5033195;28;20037;-73
2023/05/30 03:57:00;;;;;;;3.35;2.35;;;;;;;20.56;57.36;98587.19;5054382;28;20785;-73
2023/05/30 03:59:25;;;;;;;3.83;2.17;;;;;;;20.57;57.28;98588.00;5053416;28;20036;-73
2023/05/30 04:01:51;;;;;;;5.80;3.15;;;;;;;20.84;64.02;98588.34;5053002;28;20045;-73
2023/05/30 04:04:16;;;;;;;4.43;2.70;;;;;;;21.09;62.79;98586.16;5055134;28;20060;-72
2023/05/30 04:06:42;;;;;;;10.60;2.70;;;;;;;21.27;62.06;98581.25;5055046;28;20037;-71
2023/05/30 04:09:07;;;;;;;15.05;2.55;;;;;;;21.40;62.08;98585.84;5054914;28;20499;-71
2023/05/30 04:11:33;;;;;;;5.47;2.67;;;;;;;21.50;61.58;98586.38;5054822;28;20029;-71
2023/05/30 04:13:58;;;;;;;5.95;2.55;;;;;;;21.65;60.71;98588.16;5020059;28;20420;-73
2023/05/30 04:16:24;;;;;;;6.13;2.50;;;;;;;21.74;60.16;98584.31;5053384;28;20032;-71
2023/05/30 04:18:49;;;;;;;6.20;2.70;;;;;;;21.81;59.90;98584.38;5054603;28;20044;-71
2023/05/30 04:21:15;;;;;;;6.70;2.55;;;;;;;21.84;59.96;98581.34;5053394;28;20032;-72
2023/05/30 04:23:41;;;;;;;3.95;2.40;;;;;;;21.90;59.96;98582.38;5054356;28;20025;-74
2023/05/30 04:26:09;;;;;;;7.78;2.80;;;;;;;21.92;59.78;98583.00;5052798;28;20037;-73
2023/05/30 04:28:38;;;;;;;6.30;2.90;;;;;;;21.97;59.43;98585.94;5036706;28;20025;-73
2023/05/30 04:31:08;;;;;;;3.80;2.35;;;;;;;21.97;59.39;98585.94;5035345;28;20032;-74
2023/05/30 04:33:35;;;;;;;6.85;2.40;;;;;;;22.00;59.17;98585.53;5053256;28;20054;-74
2023/05/30 04:36:10;;;;;;;5.38;2.42;;;;;;;22.01;59.03;98595.97;5019929;28;20041;-74
2023/05/30 04:38:37;;;;;;;3.90;2.40;;;;;;;22.03;59.01;98591.28;5053077;28;20017;-73
2023/05/30 04:41:03;;;;;;;4.32;2.50;;;;;;;22.01;58.79;98597.78;5053638;28;20068;-75
2023/05/30 04:43:34;;;;;;;2.75;2.28;;;;;;;22.01;58.66;98595.97;5036827;28;20027;-74
2023/05/30 04:46:00;;;;;;;6.05;2.63;;;;;;;22.04;58.52;98600.91;5037093;28;20032;-74
2023/05/30 04:48:28;;;;;;;2.90;2.13;;;;;;;22.03;58.80;98604.56;5054582;28;20029;-73
2023/05/30 04:50:53;;;;;;;5.28;2.10;;;;;;;22.01;58.50;98603.09;5035943;28;20045;-74
2023/05/30 04:53:20;;;;;;;6.10;2.35;;;;;;;22.02;58.70;98607.41;5053139;28;20098;-74
2023/05/30 04:55:46;;;;;;;4.05;2.22;;;;;;;22.04;58.70;98606.22;5036264;28;20451;-73
2023/05/30 04:58:12;;;;;;;2.97;2.25;;;;;;;22.05;58.68;98612.34;5054097;28;20071;-73
2023/05/30 05:00:38;;;;;;;2.95;2.30;;;;;;;22.05;58.62;98615.81;5054023;28;20432;-75
2023/05/30 05:03:04;;;;;;;2.40;1.98;;;;;;;22.05;58.64;98615.00;5054179;28;20040;-75
2023/05/30 05:05:30;;;;;;;4.35;2.38;;;;;;;22.04;58.19;98614.19;5052569;28;20033;-74
2023/05/30 05:07:55;;;;;;;3.22;2.25;;;;;;;22.09;58.36;98616.28;5035061;28;20569;-76
2023/05/30 05:10:21;;;;;;;4.38;2.15;;;;;;;22.13;58.27;98620.16;5052527;28;20020;-76
2023/05/30 05:12:46;;;;;;;3.10;2.20;;;;;;;22.17;57.88;98628.56;5035966;28;20036;-75
2023/05/30 05:15:12;;;;;;;3.22;1.95;;;;;;;22.19;57.85;98624.72;5053672;28;20033;-76
2023/05/30 05:17:38;;;;;;;3.97;2.00;;;;;;;22.19;57.92;98616.72;5035784;28;20036;-76
2023/05/30 05:20:07;;;;;;;2.50;1.80;;;;;;;22.22;57.85;98619.00;5035948;28;20381;-75
2023/05/30 05:22:34;;;;;;;3.00;2.03;;;;;;;22.28;57.58;98622.72;5020225;28;20476;-74
2023/05/30 05:25:00;;;;;;;2.53;1.90;;;;;;;22.32;57.64;98616.00;5052527;28;20033;-78
2023/05/30 05:27:26;;;;;;;2.72;1.80;;;;;;;22.36;57.41;98622.59;5035367;28;20469;-75
2023/05/30 05:29:51;;;;;;;3.17;1.80;;;;;;;22.37;57.15;98634.84;5035779;28;20032;-76
2023/05/30 05:32:17;;;;;;;4.45;1.70;;;;;;;22.38;56.99;98627.72;5052363;28;20036;-75
2023/05/30 05:34:42;;;;;;;3.47;1.88;;;;;;;22.39;56.96;98632.00;5035857;28;20065;-76
2023/05/30 05:37:08;;;;;;;2.72;1.67;;;;;;;22.42;57.02;98636.94;5019187;28;20125;-75
2023/05/30 05:39:33;;;;;;;2.58;1.77;;;;;;;22.43;56.88;98635.94;5052272;28;20033;-75
2023/05/30 05:42:01;;;;;;;3.70;1.90;;;;;;;22.47;56.69;98642.50;5035671;28;20033;-74
2023/05/30 05:44:27;;;;;;;3.58;2.13;;;;;;;22.50;56.75;98651.91;5052310;28;20484;-75
2023/05/30 05:46:52;;;;;;;2.95;1.63;;;;;;;22.53;56.50;98639.06;5051992;28;20052;-75
2023/05/30 05:49:18;;;;;;;2.75;1.65;;;;;;;22.66;56.08;98645.44;5035090;28;20072;-76
2023/05/30 05:51:45;;;;;;;4.13;1.70;;;;;;;22.78;55.62;98641.22;5019172;28;20048;-74
2023/05/30 05:54:10;;;;;;;4.43;1.70;;;;;;;22.94;55.12;98637.38;5034956;28;20064;-75
2023/05/30 05:56:36;;;;;;;3.63;1.98;;;;;;;23.08;54.59;98644.41;5051485;28;20453;-74
2023/05/30 05:59:01;;;;;;;4.97;3.17;;;;;;;23.59;53.74;98642.25;5035622;28;20400;-73
2023/05/30 06:01:27;;;;;;;6.00;4.10;;;;;;;23.66;53.21;98643.09;5035093;28;20480;-75
2023/05/30 06:03:52;;;;;;;10.45;5.03;;;;;;;23.82;53.02;98644.53;5034960;28;20055;-76
2023/05/30 06:06:18;;;;;;;7.38;4.88;;;;;;;24.02;52.37;98652.53;5051552;28;20562;-74
2023/05/30 06:08:45;;;;;;;6.68;5.03;;;;;;;24.13;52.31;98645.78;5051591;28;20480;-74
2023/05/30 06:11:10;;;;;;;7.72;5.57;;;;;;;24.33;51.58;98646.56;5034671;28;20037;-74
2023/05/30 06:13:37;;;;;;;8.05;6.00;;;;;;;24.65;50.76;98659.25;5056524;28;20029;-81
2023/05/30 06:16:03;;;;;;;11.80;7.03;;;;;;;25.10;49.38;98653.94;5037709;28;20032;-85
2023/05/30 06:18:28;;;;;;;9.50;7.28;;;;;;;25.14;49.36;98648.97;5055552;28;20047;-84
2023/05/30 06:20:54;;;;;;;11.85;9.63;;;;;;;25.15;48.96;98642.63;5056869;28;20025;-86
2023/05/30 06:23:20;;;;;;;14.30;8.45;;;;;;;25.28;48.45;98658.59;5021784;28;20102;-87
2023/05/30 06:25:45;;;;;;;13.23;8.27;;;;;;;25.33;48.09;98661.41;5052680;28;20472;-84
2023/05/30 06:28:11;;;;;;;12.32;7.07;;;;;;;25.39;48.01;98660.56;5023724;28;20079;-82
2023/05/30 06:30:37;;;;;;;12.43;8.65;;;;;;;25.36;47.84;98663.66;5039054;28;20064;-80
2023/05/30 06:33:03;;;;;;;18.05;8.30;;;;;;;25.39;47.98;98660.56;5018231;28;20466;-80
2023/05/30 06:35:28;;;;;;;14.48;8.73;;;;;;;25.40;47.90;98654.19;5024062;28;20044;-80
2023/05/30 06:37:54;;;;;;;13.18;9.43;;;;;;;25.37;48.06;98659.16;5033452;28;20060;-79
2023/05/30 06:40:19;;;;;;;13.52;8.27;;;;;;;25.34;48.23;98654.25;5027580;28;20052;-79
2023/05/30 06:42:45;;;;;;;9.40;7.30;;;;;;;25.38;47.45;98658.94;5032373;28;20032;-80
2023/05/30 06:45:10;;;;;;;8.93;7.03;;;;;;;25.42;47.61;98654.78;5014387;28;20416;-78
2023/05/30 06:47:36;;;;;;;9.27;7.10;;;;;;;25.41;47.77;98655.00;5017192;28;20034;-83
2023/05/30 06:50:01;;;;;;;10.02;5.70;;;;;;;25.37;47.92;98657.31;5034362;28;20067;-71
2023/05/30 06:52:27;;;;;;;10.02;5.40;;;;;;;25.36;47.59;98654.84;5037799;28;20040;-72
2023/05/30 06:54:52;;;;;;;9.50;4.95;;;;;;;25.32;47.61;98658.97;5032172;28;20040;-73
2023/05/30 06:57:18;;;;;;;16.63;4.75;;;;;;;25.35;47.68;98656.69;5021035;28;20484;-74
2023/05/30 06:59:43;;;;;;;14.73;5.00;;;;;;;25.37;48.09;98659.97;5017667;28;20033;-75
2023/05/30 07:02:10;;;;;;;17.58;4.53;;;;;;;25.42;48.15;98648.63;5053002;28;20037;-86
2023/05/30 07:04:36;;;;;;;12.95;4.60;;;;;;;25.53;47.89;98655.97;5035688;28;20033;-82
2023/05/30 07:07:02;;;;;;;6.93;4.20;;;;;;;25.61;46.97;98652.22;5052274;28;20412;-81
2023/05/30 07:09:27;;;;;;;9.18;4.30;;;;;;;25.67;46.96;98656.69;5053630;28;20033;-82
2023/05/30 07:11:54;;;;;;;9.98;4.35;;;;;;;25.68;47.16;98654.81;5052364;28;20087;-84
2023/05/30 07:14:19;;;;;;;6.75;4.10;;;;;;;25.61;46.63;98661.03;5035597;28;20033;-83
2023/05/30 07:16:45;;;;;;;5.75;3.60;;;;;;;25.52;46.92;98656.19;5051145;28;20098;-79
2023/05/30 07:19:11;;;;;;;12.93;4.00;;;;;;;25.54;46.73;98668.28;5045848;28;20116;-80
2023/05/30 07:21:37;;;;;;;8.35;3.78;;;;;;;25.54;46.68;98662.13;5036541;28;20068;-79
2023/05/30 07:24:03;;;;;;;8.00;3.78;;;;;;;25.50;46.91;98663.59;5034866;28;20582;-74
2023/05/30 07:26:28;;;;;;;13.13;3.55;;;;;;;25.44;47.61;98667.94;5051996;28;20488;-72
2023/05/30 07:28:54;;;;;;;5.28;2.83;;;;;;;25.52;46.89;98673.03;5051147;28;20036;-76
2023/05/30 07:31:19;;;;;;;9.55;3.28;;;;;;;25.60;47.05;98671.94;5037904;28;20052;-74
2023/05/30 07:33:45;;;;;;;8.70;2.40;;;;;;;25.65;46.69;98677.47;5054623;28;20061;-78
2023/05/30 07:36:12;;;;;;;3.45;2.30;;;;;;;25.67;46.64;98667.38;5056436;28;20494;-87
2023/05/30 07:38:37;;;;;;;6.32;2.60;;;;;;;25.70;46.58;98674.16;5056017;28;20025;-78
2023/05/30 07:41:03;;;;;;;3.08;2.10;;;;;;;25.74;46.60;98670.00;5056014;28;20028;-79
2023/05/30 07:43:28;;;;;;;8.25;2.10;;;;;;;25.79;46.36;98675.50;5038508;28;20037;-79
2023/05/30 07:45:54;;;;;;;5.35;2.28;;;;;;;25.87;46.63;98667.25;5054891;28;20037;-80
2023/05/30 07:48:19;;;;;;;4.15;2.30;;;;;;;25.96;46.83;98673.13;5037911;28;20118;-78
2023/05/30 07:50:45;;;;;;;5.18;2.40;;;;;;;25.99;46.63;98670.03;5037940;28;20070;-78
2023/05/30 07:53:10;;;;;;;4.15;2.17;;;;;;;26.03;46.63;98670.41;5038025;28;20060;-80
2023/05/30 07:55:36;;;;;;;2.95;2.20;;;;;;;26.03;46.60;98671.25;5055463;28;20412;-80
2023/05/30 07:58:01;;;;;;;3.60;2.20;;;;;;;26.11;46.38;98676.31;5021103;28;20040;-77
2023/05/30 08:00:27;;;;;;;5.57;1.90;;;;;;;26.10;46.45;98668.50;5054294;28;20029;-81
2023/05/30 08:02:53;;;;;;;5.28;2.35;;;;;;;26.16;46.24;98684.50;5037484;28;20299;-76
2023/05/30 08:05:19;;;;;;;6.47;2.25;;;;;;;26.17;46.85;98686.13;5055471;28;20060;-89
2023/05/30 08:07:45;;;;;;;9.38;2.63;;;;;;;26.17;46.77;98686.13;5055296;28;20029;-82
2023/05/30 08:10:10;;;;;;;8.27;2.70;;;;;;;26.13;47.04;98684.13;5056436;28;20031;-85
2023/05/30 08:12:36;;;;;;;13.20;2.42;;;;;;;26.17;46.75;98688.81;5057449;28;20463;-86
2023/05/30 08:15:01;;;;;;;4.20;2.40;;;;;;;26.21;47.00;98696.41;5057017;28;20046;-87
2023/05/30 08:17:29;;;;;;;14.82;2.72;;;;;;;26.27;46.54;98698.19;5039385;28;20037;-81
2023/05/30 08:19:55;;;;;;;9.15;2.90;;;;;;;26.33;45.93;98702.69;5056008;28;20078;-69
2023/05/30 08:22:21;;;;;;;7.53;2.80;;;;;;;26.39;46.17;98703.63;5037313;28;20041;-68
2023/05/30 08:24:50;;;;;;;7.18;2.65;;;;;;;26.39;45.50;98696.41;5020901;28;20033;-69
2023/05/30 08:27:16;;;;;;;13.18;2.90;;;;;;;26.40;46.28;98695.38;5036995;28;20496;-67
2023/05/30 08:29:42;;;;;;;12.20;2.67;;;;;;;26.46;45.19;98704.41;5036541;28;20033;-68
2023/05/30 08:32:07;;;;;;;8.77;2.80;;;;;;;26.49;45.17;98706.63;5037323;28;20525;-68
2023/05/30 08:34:34;;;;;;;11.80;3.83;;;;;;;26.46;44.28;98713.25;5020244;28;20120;-74
2023/05/30 08:37:00;;;;;;;8.73;3.77;;;;;;;26.34;45.22;98712.31;5020502;28;20124;-72
2023/05/30 08:39:26;;;;;;;12.18;4.30;;;;;;;26.31;45.28;98713.59;5037012;28;20113;-76
2023/05/30 08:41:52;;;;;;;8.77;4.20;;;;;;;26.28;45.35;98715.88;5018952;28;20033;-76
2023/05/30 08:44:20;;;;;;;11.23;5.05;;;;;;;26.28;46.25;98713.19;5020467;28;20553;-81
2023/05/30 08:46:46;;;;;;;9.05;4.57;;;;;;;26.39;47.79;98711.66;5053396;28;20025;-75
2023/05/30 08:49:17;;;;;;;8.40;4.85;;;;;;;26.45;48.20;98716.13;5053765;28;20033;-77
2023/05/30 08:51:43;;;;;;;10.05;4.43;;;;;;;26.49;48.08;98720.81;5020129;28;20041;-76
2023/05/30 08:54:36;;;;;;;8.98;4.38;;;;;;;26.64;47.86;98719.66;5053223;28;20113;-73
2023/05/30 08:57:05;;;;;;;6.55;3.95;;;;;;;26.74;48.01;98730.72;5051212;28;20041;-75
2023/05/30 08:59:30;;;;;;;9.18;4.50;;;;;;;26.91;48.75;98728.25;5019768;28;20391;-75
2023/05/30 09:01:56;;;;;;;6.63;3.78;;;;;;;27.02;48.63;98724.81;5051809;28;20044;-75
2023/05/30 09:04:21;;;;;;;9.63;3.63;;;;;;;27.14;47.78;98722.22;5019822;28;20045;-76
2023/05/30 09:06:47;;;;;;;7.90;3.60;;;;;;;27.31;48.27;98730.47;5035980;28;20523;-75
2023/05/30 09:09:13;;;;;;;4.82;3.38;;;;;;;27.48;47.37;98725.28;5052713;28;20054;-74
2023/05/30 09:11:41;;;;;;;5.95;3.58;;;;;;;27.63;47.63;98722.22;5019597;28;20041;-75
2023/05/30 09:14:07;;;;;;;8.02;3.60;;;;;;;27.77;48.58;98736.25;5020391;28;20029;-76
2023/05/30 09:16:32;;;;;;;4.38;3.42;;;;;;;27.89;47.89;98730.91;5019641;28;20407;-74
2023/05/30 09:18:58;;;;;;;5.05;3.50;;;;;;;28.05;48.45;98730.25;5019355;28;20174;-74
2023/05/30 09:21:24;;;;;;;6.63;3.35;;;;;;;28.21;47.79;98727.94;5052810;28;20468;-75
2023/05/30 09:23:50;;;;;;;6.20;4.25;;;;;;;28.38;47.71;98726.19;5019329;28;20091;-76
2023/05/30 09:26:16;;;;;;;5.97;4.20;;;;;;;28.69;46.62;98718.88;5019479;28;20506;-75
2023/05/30 09:28:43;;;;;;;5.15;3.42;;;;;;;28.88;46.46;98731.09;5019516;28;20029;-74
2023/05/30 09:31:09;;;;;;;6.97;3.85;;;;;;;29.10;46.59;98732.31;5019304;28;20041;-73
2023/05/30 09:33:43;;;;;;;4.85;3.78;;;;;;;29.28;46.60;98729.47;5035833;28;20037;-75
2023/05/30 09:36:12;;;;;;;6.13;3.50;;;;;;;29.44;45.37;98724.41;5052282;28;20091;-76
2023/05/30 09:38:37;;;;;;;6.85;3.60;;;;;;;29.61;44.25;98721.75;5052327;28;20115;-75
2023/05/30 09:41:03;;;;;;;4.82;3.28;;;;;;;29.88;43.19;98713.91;5035533;28;20064;-75
2023/05/30 09:43:35;;;;;;;8.68;3.88;;;;;;;30.13;42.56;98710.81;5035437;28;20037;-73
2023/05/30 09:46:05;;;;;;;5.45;3.30;;;;;;;30.29;42.97;98719.94;5018983;28;20128;-74
2023/05/30 09:48:31;;;;;;;7.88;3.55;;;;;;;30.39;42.34;98717.41;5035146;28;20071;-75
2023/05/30 09:51:00;;;;;;;6.20;3.40;;;;;;;30.40;43.02;98704.78;5018811;28;20136;-75
2023/05/30 09:53:30;;;;;;;4.40;3.40;;;;;;;30.43;42.89;98699.72;5035060;28;20025;-75
2023/05/30 09:55:56;;;;;;;6.88;4.30;;;;;;;30.53;42.07;98707.09;5051783;28;20086;-74
2023/05/30 09:58:22;;;;;;;7.43;3.83;;;;;;;30.57;42.20;98697.47;5018697;28;20063;-73
2023/05/30 10:00:54;;;;;;;6.63;3.38;;;;;;;30.63;42.69;98701.03;5035193;28;20374;-74
2023/05/30 10:03:20;;;;;;;5.50;3.78;;;;;;;30.59;43.62;98694.53;5019402;28;20094;-74
2023/05/30 10:05:45;;;;;;;6.32;3.63;;;;;;;30.64;43.42;98699.97;5018483;28;20036;-74
2023/05/30 10:08:11;;;;;;;6.50;3.40;;;;;;;30.65;42.63;98690.84;5051640;28;20064;-75
2023/05/30 10:10:39;;;;;;;5.88;3.60;;;;;;;30.66;42.20;98682.53;5018373;28;20052;-75
2023/05/30 10:13:04;;;;;;;8.30;4.78;;;;;;;30.67;42.53;98678.75;5034768;28;20080;-73
2023/05/30 10:15:30;;;;;;;7.80;4.25;;;;;;;30.72;42.17;98677.19;5034933;28;20118;-75
2023/05/30 10:17:58;;;;;;;5.85;4.10;;;;;;;30.69;42.25;98675.00;5052697;28;20033;-77
2023/05/30 10:20:25;;;;;;;8.55;4.00;;;;;;;30.74;42.48;98675.06;5051244;28;20074;-74
2023/05/30 10:22:54;;;;;;;5.88;4.07;;;;;;;30.78;42.64;98682.38;5035385;28;20037;-73
2023/05/30 10:25:20;;;;;;;5.22;3.97;;;;;;;30.76;43.26;98673.75;5051423;28;20049;-74
2023/05/30 10:27:51;;;;;;;6.78;3.63;;;;;;;30.79;41.73;98672.41;5018056;28;20048;-73
2023/05/30 10:30:35;;;;;;;7.25;3.50;;;;;;;30.87;42.00;98676.56;5018136;28;20021;-76
2023/05/30 10:33:02;;;;;;;6.47;3.65;;;;;;;30.83;42.24;98671.66;5051681;28;20064;-75
2023/05/30 10:35:28;;;;;;;5.10;3.60;;;;;;;30.78;42.79;98670.81;5050708;28;20036;-75
2023/05/30 10:37:53;;;;;;;7.47;4.13;;;;;;;30.81;42.59;98673.00;5034545;28;20032;-74
2023/05/30 10:40:59;;;;;;;6.78;3.70;;;;;;;30.76;41.37;98671.06;5034620;28;20112;-75
2023/05/30 10:43:28;;;;;;;5.80;3.27;;;;;;;30.66;40.39;98670.91;5030643;28;20037;-73
2023/05/30 10:45:59;;;;;;;4.60;3.30;;;;;;;30.64;40.21;98673.06;5030091;28;20132;-75
2023/05/30 10:48:48;;;;;;;5.47;3.50;;;;;;;30.61;40.10;98670.84;5013362;28;20503;-74
2023/05/30 10:51:14;;;;;;;5.40;3.60;;;;;;;30.51;38.90;98657.28;4974245;28;20498;-74
2023/05/30 10:53:43;;;;;;;5.68;3.58;;;;;;;30.49;39.25;98677.19;4974309;28;20037;-76
2023/05/30 10:56:38;;;;;;;5.63;3.38;;;;;;;30.42;38.82;98671.13;4942344;28;20105;-74
2023/05/30 10:59:10;;;;;;;5.78;2.92;;;;;;;30.40;38.67;98669.78;4989324;28;20038;-72
2023/05/30 11:01:36;;;;;;;4.88;3.00;;;;;;;30.35;38.05;98670.50;4959281;28;20042;-73
2023/05/30 11:04:03;;;;;;;5.70;3.20;;;;;;;30.28;38.47;98667.16;4989749;28;20034;-73
2023/05/30 11:06:37;;;;;;;5.83;4.50;;;;;;;30.21;38.88;98667.31;4942794;28;20477;-74
2023/05/30 11:09:16;;;;;;;7.32;3.63;;;;;;;30.21;39.72;98658.44;4974155;28;20258;-74
2023/05/30 11:11:54;;;;;;;4.68;3.17;;;;;;;30.25;40.26;98652.31;4959534;28;20133;-75
2023/05/30 11:14:29;;;;;;;9.88;3.65;;;;;;;30.17;40.66;98651.91;4958057;28;20486;-74
2023/05/30 11:16:54;;;;;;;5.97;4.18;;;;;;;30.08;41.33;98644.25;4958484;28;20030;-73
2023/05/30 11:19:42;;;;;;;6.60;3.78;;;;;;;30.06;39.86;98645.56;4986836;28;20040;-73
2023/05/30 11:22:17;;;;;;;6.40;3.88;;;;;;;30.03;41.25;98632.59;4994028;28;20046;-73
2023/05/30 11:24:43;;;;;;;6.15;4.30;;;;;;;30.04;41.95;98632.34;4978407;28;20030;-72
2023/05/30 11:27:15;;;;;;;5.10;3.83;;;;;;;30.05;41.89;98631.31;5012647;28;20049;-74
2023/05/30 11:29:47;;;;;;;8.32;3.63;;;;;;;30.03;41.28;98632.59;5018325;28;20040;-74
2023/05/30 11:32:23;;;;;;;5.97;3.22;;;;;;;30.01;41.71;98629.34;5050666;28;20029;-74